OOCL Kaohsiung — 9V9830 — position and weather

sailwx.info

Track history (hours):
 
Tides and Currents Weather Stations Pressure Air Temp Water Temp Dewpoint Dewpoint Depression Visibility Wind Speed Wind Dir Waves Ship Positions

OOCL Kaohsiung

Last reported at 2016-Feb-05 22:33 UTC. Time now 2016-Feb-09 20:42 UTC.
Position N 36°23' E 014°38'.

Length 280 m; draft 13.1 m.

Type: Cargo ship. MMSI: 566389000.

Date/timePositionNaut miles runAvg speedWind from/ knotsBaromVisibWave heightAir tempDewpointWater temp
2016-Feb-05 22:33N 36°23' E 014°38'2120.6
2016-Feb-05 21:33N 36°32' E 014°15'2120.8
2016-Feb-05 20:33N 36°43' E 013°53'2121.1
2016-Feb-05 19:33N 36°54' E 013°31'8420.8
2016-Feb-05 15:31N 37°39' E 012°01'14721.1
2016-Feb-05 08:33N 38°58' E 009°24'1716.9
2016-Feb-05 07:32N 39°07' E 009°06'6 5.5
2016-Feb-05 06:32N 39°13' E 009°04'0 0.0
2016-Feb-05 05:32N 39°13' E 009°04'0 0.0
2016-Feb-05 04:32N 39°13' E 009°04'0 0.0
2016-Feb-05 03:32N 39°13' E 009°04'0 0.0
2016-Feb-05 02:32N 39°13' E 009°04'0 0.0
2016-Feb-05 01:32N 39°13' E 009°04'0 0.0
2016-Feb-05 00:32N 39°13' E 009°04'0 0.0
2016-Feb-04 23:32N 39°13' E 009°04'0 0.0
2016-Feb-04 22:32N 39°13' E 009°04'0 0.0
2016-Feb-04 21:32N 39°13' E 009°04'0 0.0
2016-Feb-04 20:32N 39°13' E 009°04'0 0.0
2016-Feb-04 19:32N 39°13' E 009°04'0 0.0
2016-Feb-04 18:32N 39°13' E 009°04'0 0.0
2016-Feb-04 17:32N 39°13' E 009°04'0 0.0
2016-Feb-04 16:32N 39°13' E 009°04'0 0.0
2016-Feb-04 15:32N 39°13' E 009°04'0 0.0
2016-Feb-04 14:32N 39°13' E 009°04'0 0.0
2016-Feb-04 13:32N 39°13' E 009°04'0 0.0
2016-Feb-04 12:32N 39°13' E 009°04'0 0.0
2016-Feb-04 11:32N 39°13' E 009°04'0 0.0
2016-Feb-04 10:32N 39°13' E 009°04'0 0.0
2016-Feb-04 09:32N 39°13' E 009°04'0 0.0
2016-Feb-04 08:32N 39°13' E 009°04'3 3.2
2016-Feb-04 07:33N 39°10' E 009°07'1110.6
2016-Feb-04 06:33N 39°00' E 009°10'2 1.8
2016-Feb-04 05:33N 39°02' E 009°11'2 1.7
2016-Feb-04 04:34N 39°03' E 009°10'6 6.3
2016-Feb-04 03:33N 39°09' E 009°06'9 9.3
2016-Feb-04 02:33N 39°00' E 009°10'1010.4
2016-Feb-04 01:33N 38°53' E 009°01'1514.9
2016-Feb-04 00:32N 38°43' E 008°45'29915.8
2016-Feb-03 05:33N 37°25' E 002°39'2016.9
2016-Feb-03 04:24N 37°19' E 002°15'1416.8
2016-Feb-03 03:33N 37°15' E 001°58'1717.7
2016-Feb-03 02:34N 37°10' E 001°37'1817.5
2016-Feb-03 01:33N 37°05' E 001°16'1717.2
2016-Feb-03 00:33N 37°01' E 000°55'1717.2
2016-Feb-02 23:33N 36°57' E 000°34'1717.4
2016-Feb-02 22:34N 36°53' E 000°13'1817.7
2016-Feb-02 21:33N 36°48' W 000°09'1717.2
2016-Feb-02 20:33N 36°44' W 000°30'1817.7
2016-Feb-02 19:33N 36°40' W 000°51'1918.1
2016-Feb-02 18:30N 36°33' W 001°13'1718.4
2016-Feb-02 17:33N 36°29' W 001°34'1918.8
2016-Feb-02 16:33N 36°25' W 001°57'16918.8
2016-Feb-02 07:34N 35°58' W 005°24'7718.9
2016-Feb-02 03:30N 35°56' W 006°59'2219.1
2016-Feb-02 02:21N 35°56' W 007°26'5419.2
2016-Feb-01 23:33N 36°00' W 008°33'1919.4
2016-Feb-01 22:34N 36°01' W 008°56'1919.4
2016-Feb-01 21:33N 36°02' W 009°20'1919.2
2016-Feb-01 20:33N 36°03' W 009°44'2019.0
2016-Feb-01 19:30N 36°03' W 010°09'1819.1
2016-Feb-01 18:34N 36°04' W 010°31'1918.9
2016-Feb-01 17:33N 36°06' W 010°54'1918.6
2016-Feb-01 16:33N 36°07' W 011°17'1918.6
2016-Feb-01 15:33N 36°07' W 011°40'1918.9
2016-Feb-01 14:32N 36°08' W 012°04'1918.8
2016-Feb-01 13:33N 36°09' W 012°27'19318.8
2016-Feb-01 03:17N 36°19' W 016°26'2019.0
2016-Feb-01 02:14N 36°20' W 016°51'22619.0
2016-Jan-31 14:22N 36°32' W 021°32'1718.9
2016-Jan-31 13:29N 36°33' W 021°52'1819.0
2016-Jan-31 12:31N 36°34' W 022°15'1919.2
2016-Jan-31 11:33N 36°35' W 022°38'2019.1
2016-Jan-31 10:29N 36°36' W 023°03'2018.9
2016-Jan-31 09:25N 36°37' W 023°28'1619.0
2016-Jan-31 08:34N 36°37' W 023°49'1919.1
2016-Jan-31 07:34N 36°38' W 024°12'1919.1
2016-Jan-31 06:34N 36°39' W 024°36'1919.1
2016-Jan-31 05:33N 36°40' W 024°60'1919.4
2016-Jan-31 04:34N 36°42' W 025°24'1919.2
2016-Jan-31 03:34N 36°44' W 025°48'1919.0
2016-Jan-31 02:33N 36°47' W 026°12'1919.1
2016-Jan-31 01:33N 36°49' W 026°35'1919.0
2016-Jan-31 00:33N 36°52' W 026°59'1919.2
2016-Jan-30 23:33N 36°54' W 027°22'1919.4
2016-Jan-30 22:33N 36°57' W 027°46'1919.4
2016-Jan-30 21:33N 36°59' W 028°11'1919.0
2016-Jan-30 20:33N 37°01' W 028°34'1919.1
2016-Jan-30 19:33N 37°03' W 028°58'1918.9
2016-Jan-30 18:33N 37°04' W 029°22'1919.1
2016-Jan-30 17:33N 37°07' W 029°45'2119.4
2016-Jan-30 16:27N 37°09' W 030°12'1819.0
2016-Jan-30 15:30N 37°12' W 030°35'1919.1
2016-Jan-30 14:31N 37°14' W 030°58'1819.2
2016-Jan-30 13:34N 37°17' W 031°21'2020.2
2016-Jan-30 12:33N 37°20' W 031°46'2121.3
2016-Jan-30 11:34N 37°23' W 032°13'2520.4
2016-Jan-30 10:21N 37°25' W 032°44'4119.6
2016-Jan-30 08:15N 37°27' W 033°35'8319.8
2016-Jan-30 04:04N 37°38' W 035°19'  
Track history (hours):
 
Tides and Currents Weather Stations Pressure Air Temp Water Temp Dewpoint Dewpoint Depression Visibility Wind Speed Wind Dir Waves Ship Positions

OOCL Kaohsiung

Last reported at 2016-Feb-05 22:33 UTC. Time now 2016-Feb-09 20:42 UTC.
Position N 36°23' E 014°38'.

Length 280 m; draft 13.1 m.

Type: Cargo ship. MMSI: 566389000.

Date/timePositionNaut miles runAvg speedWind from/ knotsBaromVisibWave heightAir tempDewpointWater temp
2016-Feb-05 22:33N 36°23' E 014°38'2120.6
2016-Feb-05 21:33N 36°32' E 014°15'2120.8
2016-Feb-05 20:33N 36°43' E 013°53'2121.1
2016-Feb-05 19:33N 36°54' E 013°31'8420.8
2016-Feb-05 15:31N 37°39' E 012°01'14721.1
2016-Feb-05 08:33N 38°58' E 009°24'1716.9
2016-Feb-05 07:32N 39°07' E 009°06'6 5.5
2016-Feb-05 06:32N 39°13' E 009°04'0 0.0
2016-Feb-05 05:32N 39°13' E 009°04'0 0.0
2016-Feb-05 04:32N 39°13' E 009°04'0 0.0
2016-Feb-05 03:32N 39°13' E 009°04'0 0.0
2016-Feb-05 02:32N 39°13' E 009°04'0 0.0
2016-Feb-05 01:32N 39°13' E 009°04'0 0.0
2016-Feb-05 00:32N 39°13' E 009°04'0 0.0
2016-Feb-04 23:32N 39°13' E 009°04'0 0.0
2016-Feb-04 22:32N 39°13' E 009°04'0 0.0
2016-Feb-04 21:32N 39°13' E 009°04'0 0.0
2016-Feb-04 20:32N 39°13' E 009°04'0 0.0
2016-Feb-04 19:32N 39°13' E 009°04'0 0.0
2016-Feb-04 18:32N 39°13' E 009°04'0 0.0
2016-Feb-04 17:32N 39°13' E 009°04'0 0.0
2016-Feb-04 16:32N 39°13' E 009°04'0 0.0
2016-Feb-04 15:32N 39°13' E 009°04'0 0.0
2016-Feb-04 14:32N 39°13' E 009°04'0 0.0
2016-Feb-04 13:32N 39°13' E 009°04'0 0.0
2016-Feb-04 12:32N 39°13' E 009°04'0 0.0
2016-Feb-04 11:32N 39°13' E 009°04'0 0.0
2016-Feb-04 10:32N 39°13' E 009°04'0 0.0
2016-Feb-04 09:32N 39°13' E 009°04'0 0.0
2016-Feb-04 08:32N 39°13' E 009°04'3 3.2
2016-Feb-04 07:33N 39°10' E 009°07'1110.6
2016-Feb-04 06:33N 39°00' E 009°10'2 1.8
2016-Feb-04 05:33N 39°02' E 009°11'2 1.7
2016-Feb-04 04:34N 39°03' E 009°10'6 6.3
2016-Feb-04 03:33N 39°09' E 009°06'9 9.3
2016-Feb-04 02:33N 39°00' E 009°10'1010.4
2016-Feb-04 01:33N 38°53' E 009°01'1514.9
2016-Feb-04 00:32N 38°43' E 008°45'29915.8
2016-Feb-03 05:33N 37°25' E 002°39'2016.9
2016-Feb-03 04:24N 37°19' E 002°15'1416.8
2016-Feb-03 03:33N 37°15' E 001°58'1717.7
2016-Feb-03 02:34N 37°10' E 001°37'1817.5
2016-Feb-03 01:33N 37°05' E 001°16'1717.2
2016-Feb-03 00:33N 37°01' E 000°55'1717.2
2016-Feb-02 23:33N 36°57' E 000°34'1717.4
2016-Feb-02 22:34N 36°53' E 000°13'1817.7
2016-Feb-02 21:33N 36°48' W 000°09'1717.2
2016-Feb-02 20:33N 36°44' W 000°30'1817.7
2016-Feb-02 19:33N 36°40' W 000°51'1918.1
2016-Feb-02 18:30N 36°33' W 001°13'1718.4
2016-Feb-02 17:33N 36°29' W 001°34'1918.8
2016-Feb-02 16:33N 36°25' W 001°57'16918.8
2016-Feb-02 07:34N 35°58' W 005°24'7718.9
2016-Feb-02 03:30N 35°56' W 006°59'2219.1
2016-Feb-02 02:21N 35°56' W 007°26'5419.2
2016-Feb-01 23:33N 36°00' W 008°33'1919.4
2016-Feb-01 22:34N 36°01' W 008°56'1919.4
2016-Feb-01 21:33N 36°02' W 009°20'1919.2
2016-Feb-01 20:33N 36°03' W 009°44'2019.0
2016-Feb-01 19:30N 36°03' W 010°09'1819.1
2016-Feb-01 18:34N 36°04' W 010°31'1918.9
2016-Feb-01 17:33N 36°06' W 010°54'1918.6
2016-Feb-01 16:33N 36°07' W 011°17'1918.6
2016-Feb-01 15:33N 36°07' W 011°40'1918.9
2016-Feb-01 14:32N 36°08' W 012°04'1918.8
2016-Feb-01 13:33N 36°09' W 012°27'19318.8
2016-Feb-01 03:17N 36°19' W 016°26'2019.0
2016-Feb-01 02:14N 36°20' W 016°51'22619.0
2016-Jan-31 14:22N 36°32' W 021°32'1718.9
2016-Jan-31 13:29N 36°33' W 021°52'1819.0
2016-Jan-31 12:31N 36°34' W 022°15'1919.2
2016-Jan-31 11:33N 36°35' W 022°38'2019.1
2016-Jan-31 10:29N 36°36' W 023°03'2018.9
2016-Jan-31 09:25N 36°37' W 023°28'1619.0
2016-Jan-31 08:34N 36°37' W 023°49'1919.1
2016-Jan-31 07:34N 36°38' W 024°12'1919.1
2016-Jan-31 06:34N 36°39' W 024°36'1919.1
2016-Jan-31 05:33N 36°40' W 024°60'1919.4
2016-Jan-31 04:34N 36°42' W 025°24'1919.2
2016-Jan-31 03:34N 36°44' W 025°48'1919.0
2016-Jan-31 02:33N 36°47' W 026°12'1919.1
2016-Jan-31 01:33N 36°49' W 026°35'1919.0
2016-Jan-31 00:33N 36°52' W 026°59'1919.2
2016-Jan-30 23:33N 36°54' W 027°22'1919.4
2016-Jan-30 22:33N 36°57' W 027°46'1919.4
2016-Jan-30 21:33N 36°59' W 028°11'1919.0
2016-Jan-30 20:33N 37°01' W 028°34'1919.1
2016-Jan-30 19:33N 37°03' W 028°58'1918.9
2016-Jan-30 18:33N 37°04' W 029°22'1919.1
2016-Jan-30 17:33N 37°07' W 029°45'2119.4
2016-Jan-30 16:27N 37°09' W 030°12'1819.0
2016-Jan-30 15:30N 37°12' W 030°35'1919.1
2016-Jan-30 14:31N 37°14' W 030°58'1819.2
2016-Jan-30 13:34N 37°17' W 031°21'2020.2
2016-Jan-30 12:33N 37°20' W 031°46'2121.3
2016-Jan-30 11:34N 37°23' W 032°13'2520.4
2016-Jan-30 10:21N 37°25' W 032°44'4119.6
2016-Jan-30 08:15N 37°27' W 033°35'8319.8
2016-Jan-30 04:04N 37°38' W 035°19'  

Dump ship's entire track history